createdAt,value
2022-08-31T00:01:27.621Z,21.77
2022-08-31T00:04:03.512Z,22.68
2022-08-31T00:06:33.386Z,22.83
2022-08-31T00:09:02.176Z,22.15
2022-08-31T00:11:30.869Z,21.41
2022-08-31T00:14:00.690Z,20.80
2022-08-31T00:16:30.651Z,20.65
2022-08-31T00:18:57.630Z,21.64
2022-08-31T00:21:27.344Z,22.45
2022-08-31T00:23:55.337Z,22.77
2022-08-31T00:26:23.285Z,22.80
2022-08-31T00:28:51.153Z,22.12
2022-08-31T00:31:19.085Z,21.38
2022-08-31T00:33:51.804Z,20.80
2022-08-31T00:36:22.335Z,20.67
2022-08-31T00:38:50.362Z,21.56
2022-08-31T00:41:20.930Z,22.35
2022-08-31T00:43:51.462Z,22.81
2022-08-31T00:46:21.480Z,22.97
2022-08-31T00:49:15.659Z,22.32
2022-08-31T00:51:55.213Z,21.41
2022-08-31T00:54:28.513Z,21.11
2022-08-31T00:56:56.053Z,21.91
2022-08-31T00:59:25.503Z,22.59
2022-08-31T01:01:53.287Z,22.96
2022-08-31T01:04:21.096Z,23.02
2022-08-31T01:06:50.308Z,22.38
2022-08-31T01:09:21.733Z,21.63
2022-08-31T01:11:49.613Z,21.05
2022-08-31T01:14:16.698Z,20.88
2022-08-31T01:16:58.340Z,21.72
2022-08-31T01:19:40.924Z,22.37
2022-08-31T01:22:17.424Z,22.57
2022-08-31T01:24:47.947Z,22.56
2022-08-31T01:27:19.604Z,22.49
2022-08-31T01:29:46.553Z,22.43
2022-08-31T01:32:13.604Z,22.41
2022-08-31T01:34:41.154Z,22.41
2022-08-31T01:37:08.421Z,22.70
2022-08-31T01:39:35.461Z,23.01
2022-08-31T01:42:02.296Z,22.78
2022-08-31T01:44:29.139Z,22.03
2022-08-31T01:46:57.400Z,21.33
2022-08-31T01:49:27.951Z,20.71
2022-08-31T01:51:55.931Z,20.48
2022-08-31T01:54:24.660Z,21.17
2022-08-31T01:56:52.086Z,21.60
2022-08-31T01:59:25.675Z,21.84
2022-08-31T02:02:00.818Z,21.94
2022-08-31T02:04:28.878Z,21.97
2022-08-31T02:07:00.222Z,21.94
2022-08-31T02:09:28.909Z,21.81
2022-08-31T02:11:56.061Z,21.60
2022-08-31T02:14:23.210Z,21.46
2022-08-31T02:16:50.670Z,21.36
2022-08-31T02:19:17.626Z,21.34
2022-08-31T02:21:44.371Z,21.28
2022-08-31T02:24:11.917Z,21.38
2022-08-31T02:26:39.709Z,21.54
2022-08-31T02:29:07.118Z,21.62
2022-08-31T02:31:35.200Z,21.62
2022-08-31T02:34:02.603Z,21.57
2022-08-31T02:36:31.809Z,21.51
2022-08-31T02:39:02.513Z,21.73
2022-08-31T02:41:31.378Z,22.07
2022-08-31T02:43:58.346Z,22.14
2022-08-31T02:46:25.311Z,22.22
2022-08-31T02:49:01.440Z,22.63
2022-08-31T02:51:28.180Z,22.56
2022-08-31T02:53:55.124Z,21.78
2022-08-31T02:56:23.087Z,20.93
2022-08-31T02:58:54.059Z,20.52
2022-08-31T03:01:23.428Z,21.33
2022-08-31T03:03:50.791Z,21.98
2022-08-31T03:06:19.071Z,22.19
2022-08-31T03:08:47.049Z,22.32
2022-08-31T03:11:15.514Z,22.57
2022-08-31T03:13:42.972Z,22.10
2022-08-31T03:16:13.582Z,21.25
2022-08-31T03:18:41.599Z,20.46
2022-08-31T03:21:08.847Z,20.10
2022-08-31T03:23:36.276Z,20.62
2022-08-31T03:26:05.388Z,21.05
2022-08-31T03:28:33.462Z,21.33
2022-08-31T03:31:21.039Z,21.37
2022-08-31T03:33:48.122Z,21.48
2022-08-31T03:36:17.618Z,21.61
2022-08-31T03:38:44.584Z,21.78
2022-08-31T03:41:12.138Z,21.99
2022-08-31T03:43:39.263Z,22.12
2022-08-31T03:46:11.880Z,22.24
2022-08-31T03:48:40.249Z,22.47
2022-08-31T03:51:07.498Z,22.38
2022-08-31T03:53:35.659Z,21.65
2022-08-31T03:56:08.010Z,20.88
2022-08-31T03:58:37.242Z,20.48
2022-08-31T04:01:05.573Z,21.33
2022-08-31T04:04:05.554Z,22.30
2022-08-31T04:06:47.784Z,22.41
2022-08-31T04:09:33.424Z,21.52
2022-08-31T04:12:30.038Z,20.54
2022-08-31T04:15:10.863Z,20.18
2022-08-31T04:17:57.876Z,20.82
2022-08-31T04:20:44.662Z,21.15
2022-08-31T04:23:11.690Z,21.28
2022-08-31T04:25:46.237Z,21.25
2022-08-31T04:28:12.929Z,21.17
2022-08-31T04:30:42.038Z,21.13
2022-08-31T04:33:26.122Z,21.12
2022-08-31T04:35:52.892Z,21.19
2022-08-31T04:38:20.212Z,21.25
2022-08-31T04:55:42.970Z,22.23
2022-08-31T04:58:13.077Z,22.65
2022-08-31T05:00:42.323Z,22.71
2022-08-31T05:03:24.890Z,21.90
2022-08-31T05:05:53.861Z,21.13
2022-08-31T05:08:20.931Z,20.80
2022-08-31T05:10:48.293Z,21.50
2022-08-31T05:13:15.641Z,22.06
2022-08-31T05:15:43.695Z,22.37
2022-08-31T05:18:12.450Z,22.64
2022-08-31T05:20:43.544Z,22.71
2022-08-31T05:23:11.644Z,22.17
2022-08-31T05:25:39.982Z,21.41
2022-08-31T05:28:08.686Z,21.02
2022-08-31T05:30:35.442Z,21.70
2022-08-31T05:33:09.124Z,22.26
2022-08-31T05:35:37.197Z,22.42
2022-08-31T05:38:04.449Z,22.55
2022-08-31T05:40:31.351Z,22.79
2022-08-31T05:42:59.114Z,22.84
2022-08-31T05:45:26.520Z,22.17
2022-08-31T05:47:53.667Z,21.37
2022-08-31T05:50:21.433Z,21.05
2022-08-31T05:52:49.328Z,21.90
2022-08-31T05:55:17.273Z,22.67
2022-08-31T05:57:44.644Z,23.08
2022-08-31T06:00:12.289Z,23.02
2022-08-31T06:02:44.249Z,22.24
2022-08-31T06:05:13.631Z,21.41
2022-08-31T06:07:41.314Z,21.07
2022-08-31T06:10:11.278Z,21.79
2022-08-31T06:12:44.017Z,22.35
2022-08-31T06:15:12.020Z,22.77
2022-08-31T06:17:39.746Z,23.20
2022-08-31T06:20:07.829Z,23.35
2022-08-31T06:22:36.425Z,22.67
2022-08-31T06:25:07.964Z,21.79
2022-08-31T06:27:38.274Z,21.42
2022-08-31T06:30:07.478Z,22.13
2022-08-31T06:32:35.848Z,22.75
2022-08-31T06:35:05.052Z,22.94
2022-08-31T06:37:53.628Z,22.89
2022-08-31T06:41:01.011Z,22.04
2022-08-31T06:43:46.826Z,21.66
2022-08-31T06:46:47.599Z,22.70
2022-08-31T06:49:24.104Z,23.27
2022-08-31T06:51:51.564Z,23.33
2022-08-31T06:54:34.985Z,22.60
2022-08-31T06:57:22.130Z,21.64
2022-08-31T07:00:09.138Z,21.46
2022-08-31T07:02:57.167Z,22.40
2022-08-31T07:05:25.449Z,23.20
2022-08-31T07:07:54.547Z,23.44
2022-08-31T07:10:21.788Z,22.78
2022-08-31T07:12:50.179Z,22.00
2022-08-31T07:15:18.645Z,21.40
2022-08-31T07:17:49.487Z,21.58
2022-08-31T07:20:19.800Z,22.50
2022-08-31T07:22:47.158Z,23.07
2022-08-31T07:25:39.305Z,23.59
2022-08-31T07:28:11.583Z,23.34
2022-08-31T07:30:47.091Z,22.53
2022-08-31T07:33:23.436Z,21.77
2022-08-31T07:35:56.407Z,21.57
2022-08-31T07:39:02.044Z,22.69
2022-08-31T07:41:51.105Z,23.55
2022-08-31T07:44:19.594Z,23.62
2022-08-31T07:46:48.170Z,22.85
2022-08-31T07:49:18.831Z,22.10
2022-08-31T07:52:06.007Z,21.49
2022-08-31T07:55:07.454Z,21.48
2022-08-31T07:57:55.974Z,22.63
2022-08-31T08:00:35.609Z,23.27
2022-08-31T08:03:07.386Z,23.43
2022-08-31T08:06:05.819Z,22.70
2022-08-31T08:09:24.371Z,21.83
2022-08-31T08:12:07.359Z,21.52
2022-08-31T08:15:01.600Z,22.45
2022-08-31T08:17:48.411Z,23.21
2022-08-31T08:20:38.545Z,23.50
2022-08-31T08:23:29.062Z,22.83
2022-08-31T08:26:21.178Z,22.06
2022-08-31T08:29:08.847Z,21.52
2022-08-31T08:31:48.141Z,21.47
2022-08-31T08:34:17.276Z,22.15
2022-08-31T08:37:17.794Z,22.81
2022-08-31T08:40:46.678Z,23.57
2022-08-31T08:43:52.632Z,23.08
2022-08-31T08:46:41.726Z,22.19
2022-08-31T08:49:54.314Z,21.71
2022-08-31T08:53:04.636Z,22.48
2022-08-31T08:56:32.234Z,23.60
2022-08-31T08:59:21.034Z,23.73
2022-08-31T09:02:01.772Z,23.02
2022-08-31T09:04:40.258Z,22.47
2022-08-31T09:08:09.941Z,22.01
2022-08-31T09:10:43.401Z,22.54
2022-08-31T09:13:20.958Z,23.61
2022-08-31T09:15:55.999Z,24.09
2022-08-31T09:19:09.061Z,23.57
2022-08-31T09:21:58.047Z,22.88
2022-08-31T09:24:32.325Z,22.51
2022-08-31T09:27:58.811Z,22.36
2022-08-31T09:30:46.164Z,23.36
2022-08-31T09:33:41.547Z,23.98
2022-08-31T09:36:54.852Z,23.46
2022-08-31T09:39:50.174Z,22.86
2022-08-31T09:42:32.068Z,22.53
2022-08-31T09:45:17.976Z,22.26
2022-08-31T09:48:04.031Z,22.65
2022-08-31T09:50:55.573Z,23.64
2022-08-31T09:54:09.813Z,24.10
2022-08-31T09:57:00.216Z,23.43
2022-08-31T09:59:51.083Z,22.85
2022-08-31T10:02:41.875Z,22.42
2022-08-31T10:05:45.257Z,22.13
2022-08-31T10:08:58.636Z,21.94
2022-08-31T10:11:36.252Z,22.51
2022-08-31T10:14:31.583Z,23.36
2022-08-31T10:17:15.874Z,23.95
2022-08-31T10:20:01.369Z,23.60
2022-08-31T10:22:41.938Z,23.20
2022-08-31T10:25:21.220Z,22.95
2022-08-31T10:28:00.594Z,22.83
2022-08-31T10:30:44.121Z,22.74
2022-08-31T10:33:17.500Z,22.67
2022-08-31T10:35:51.087Z,22.65
2022-08-31T10:38:35.811Z,22.64
2022-08-31T10:41:18.198Z,23.05
2022-08-31T10:43:49.153Z,24.43
2022-08-31T10:46:17.059Z,25.08
2022-08-31T10:48:55.078Z,24.82
2022-08-31T10:51:31.178Z,24.42
2022-08-31T10:54:07.167Z,24.17
2022-08-31T10:56:58.859Z,24.00
2022-08-31T10:59:34.352Z,23.88
2022-08-31T11:02:22.233Z,23.79
2022-08-31T11:05:13.745Z,23.71
2022-08-31T11:07:59.048Z,23.66
2022-08-31T11:10:47.037Z,23.66
2022-08-31T11:14:04.302Z,23.68
2022-08-31T11:16:57.967Z,23.68
2022-08-31T11:19:50.677Z,23.67
2022-08-31T11:22:37.024Z,23.70
2022-08-31T11:25:24.491Z,23.69
2022-08-31T11:28:18.524Z,23.66
2022-08-31T11:30:50.555Z,23.60
2022-08-31T11:33:28.104Z,23.52
2022-08-31T11:36:06.686Z,23.46
2022-08-31T11:39:03.441Z,23.41
2022-08-31T11:41:30.682Z,23.41
2022-08-31T11:43:58.044Z,23.42
2022-08-31T11:46:26.559Z,23.43
2022-08-31T11:48:59.408Z,23.48
2022-08-31T11:51:37.281Z,23.50
2022-08-31T11:54:41.566Z,23.52
2022-08-31T11:57:15.781Z,23.50
2022-08-31T11:59:46.039Z,23.47
2022-08-31T12:02:19.632Z,23.45
2022-08-31T12:04:47.715Z,23.44
2022-08-31T12:07:40.913Z,23.42
2022-08-31T12:10:27.194Z,23.40
2022-08-31T12:13:23.018Z,23.36
2022-08-31T12:16:06.992Z,23.26
2022-08-31T12:19:01.751Z,23.19
2022-08-31T12:21:52.106Z,23.12
2022-08-31T12:24:39.053Z,23.06
2022-08-31T12:27:49.119Z,23.03
2022-08-31T12:30:28.766Z,23.03
2022-08-31T12:33:13.249Z,23.04
2022-08-31T12:35:43.069Z,23.09
2022-08-31T12:38:23.215Z,23.14
2022-08-31T12:40:57.007Z,23.19
2022-08-31T12:43:31.626Z,23.19
2022-08-31T12:46:06.587Z,23.22
2022-08-31T12:49:00.190Z,23.25
2022-08-31T12:51:57.658Z,23.29
2022-08-31T12:54:37.183Z,23.35
2022-08-31T12:57:26.801Z,23.44
2022-08-31T13:00:13.496Z,23.58
2022-08-31T13:02:48.328Z,23.67
2022-08-31T13:05:24.953Z,23.75
2022-08-31T13:07:55.407Z,23.81
2022-08-31T13:10:34.656Z,23.87
2022-08-31T13:13:11.163Z,23.91
2022-08-31T13:15:42.192Z,23.97
2022-08-31T13:18:16.156Z,24.00
2022-08-31T13:20:45.531Z,24.02
2022-08-31T13:23:21.606Z,24.02
2022-08-31T13:26:14.539Z,24.07
2022-08-31T13:28:41.935Z,24.22
2022-08-31T13:31:10.393Z,24.32
2022-08-31T13:33:39.827Z,24.34
2022-08-31T13:36:32.319Z,24.26
2022-08-31T13:39:04.728Z,24.11
2022-08-31T13:41:40.698Z,23.91
2022-08-31T13:44:11.760Z,23.72
2022-08-31T13:46:50.993Z,23.59
2022-08-31T13:49:35.192Z,23.50
2022-08-31T13:52:20.296Z,23.41
2022-08-31T13:55:09.465Z,23.33
2022-08-31T13:57:38.693Z,23.26
2022-08-31T14:00:27.653Z,23.20
2022-08-31T14:02:55.672Z,23.11
2022-08-31T14:05:34.108Z,23.03
2022-08-31T14:08:04.408Z,22.94
2022-08-31T14:10:46.554Z,22.87
2022-08-31T14:13:15.290Z,22.80
2022-08-31T14:15:56.681Z,22.77
2022-08-31T14:18:35.543Z,22.75
2022-08-31T14:21:23.530Z,22.73
2022-08-31T14:24:04.084Z,22.72
2022-08-31T14:26:41.333Z,22.72
2022-08-31T14:29:18.712Z,22.71
2022-08-31T14:31:53.923Z,22.70
2022-08-31T14:34:23.753Z,22.69
2022-08-31T14:36:56.131Z,22.68
2022-08-31T14:39:26.861Z,22.69
2022-08-31T14:41:56.891Z,22.71
2022-08-31T14:44:29.735Z,22.70
2022-08-31T14:46:57.209Z,22.70
2022-08-31T14:49:24.971Z,22.71
2022-08-31T14:51:53.467Z,22.72
2022-08-31T14:54:21.857Z,22.74
2022-08-31T14:56:54.865Z,22.74
2022-08-31T14:59:24.459Z,22.74
2022-08-31T15:01:58.086Z,22.74
2022-08-31T15:04:28.363Z,22.75
2022-08-31T15:07:09.967Z,22.76
2022-08-31T15:09:41.723Z,22.75
2022-08-31T15:12:11.780Z,22.71
2022-08-31T15:14:47.668Z,22.66
2022-08-31T15:17:20.880Z,22.63
2022-08-31T15:20:01.184Z,22.61
2022-08-31T15:22:40.770Z,22.60
2022-08-31T15:25:12.033Z,22.54
2022-08-31T15:27:43.702Z,22.48
2022-08-31T15:30:14.829Z,22.42
2022-08-31T15:32:44.005Z,22.38
2022-08-31T15:35:17.657Z,22.33
2022-08-31T15:37:58.203Z,22.28
2022-08-31T15:40:29.380Z,22.25
2022-08-31T15:43:01.611Z,22.21
2022-08-31T15:45:31.109Z,22.16
2022-08-31T15:48:17.768Z,22.11
2022-08-31T15:50:52.097Z,22.06
2022-08-31T15:53:23.430Z,22.00
2022-08-31T15:55:52.800Z,21.94
2022-08-31T15:58:24.924Z,21.89
2022-08-31T16:00:53.695Z,21.83
2022-08-31T16:03:20.717Z,21.78
2022-08-31T16:05:48.170Z,21.75
2022-08-31T16:08:15.870Z,21.68
2022-08-31T16:10:45.444Z,21.60
2022-08-31T16:13:15.199Z,21.53
2022-08-31T16:15:51.033Z,21.45
2022-08-31T16:18:23.307Z,21.38
2022-08-31T16:20:51.441Z,21.33
2022-08-31T16:23:20.668Z,21.27
2022-08-31T16:25:49.295Z,21.22
2022-08-31T16:28:21.394Z,21.17
2022-08-31T16:30:51.566Z,21.12
2022-08-31T16:33:20.309Z,21.09
2022-08-31T16:35:48.583Z,21.05
2022-08-31T16:38:17.594Z,21.01
2022-08-31T16:40:46.680Z,20.95
2022-08-31T16:43:14.675Z,20.89
2022-08-31T16:45:42.702Z,20.84
2022-08-31T16:48:29.547Z,20.78
2022-08-31T16:51:01.484Z,20.72
2022-08-31T16:53:28.843Z,20.66
2022-08-31T16:56:00.841Z,20.60
2022-08-31T16:58:51.219Z,20.52
2022-08-31T17:01:26.808Z,20.46
2022-08-31T17:04:05.485Z,20.38
2022-08-31T17:06:35.836Z,20.31
2022-08-31T17:09:25.324Z,20.23
2022-08-31T17:12:01.185Z,20.14
2022-08-31T17:14:43.316Z,20.04
2022-08-31T17:17:13.289Z,19.93
2022-08-31T17:19:44.160Z,19.83
2022-08-31T17:22:21.465Z,19.72
2022-08-31T17:24:58.151Z,19.60
2022-08-31T17:27:33.848Z,19.47
2022-08-31T17:30:05.696Z,19.62
2022-08-31T17:32:36.278Z,20.64
2022-08-31T17:35:07.666Z,21.35
2022-08-31T17:37:37.150Z,21.56
2022-08-31T17:40:08.723Z,21.17
2022-08-31T17:42:37.611Z,20.66
2022-08-31T17:45:06.761Z,20.31
2022-08-31T17:47:35.934Z,20.04
2022-08-31T17:50:06.164Z,19.84
2022-08-31T17:52:47.841Z,19.65
2022-08-31T17:55:34.068Z,19.45
2022-08-31T17:58:16.756Z,19.29
2022-08-31T18:00:56.612Z,19.16
2022-08-31T18:03:33.432Z,19.05
2022-08-31T18:06:11.010Z,18.94
2022-08-31T18:08:45.464Z,18.83
2022-08-31T18:11:13.336Z,18.75
2022-08-31T18:13:44.803Z,18.66
2022-08-31T18:16:14.557Z,18.58
2022-08-31T18:18:47.881Z,18.51
2022-08-31T18:21:23.476Z,18.44
2022-08-31T18:23:53.079Z,18.37
2022-08-31T18:26:29.176Z,18.52
2022-08-31T18:29:00.177Z,19.57
2022-08-31T18:31:30.808Z,20.35
2022-08-31T18:34:05.225Z,21.00
2022-08-31T18:36:39.877Z,21.32
2022-08-31T18:39:14.430Z,20.77
2022-08-31T18:42:00.794Z,20.17
2022-08-31T18:44:54.669Z,19.67
2022-08-31T18:47:28.895Z,19.24
2022-08-31T18:50:02.898Z,18.95
2022-08-31T18:52:31.478Z,18.73
2022-08-31T18:54:58.430Z,18.70
2022-08-31T18:57:29.602Z,19.19
2022-08-31T19:00:08.330Z,19.67
2022-08-31T19:02:53.715Z,20.07
2022-08-31T19:05:34.387Z,20.79
2022-08-31T19:08:14.627Z,21.07
2022-08-31T19:10:58.468Z,20.43
2022-08-31T19:13:36.921Z,19.80
2022-08-31T19:16:15.369Z,19.24
2022-08-31T19:18:49.840Z,18.83
2022-08-31T19:21:34.172Z,18.73
2022-08-31T19:24:07.460Z,19.63
2022-08-31T19:26:43.061Z,20.33
2022-08-31T19:29:25.604Z,20.71
2022-08-31T19:32:00.286Z,20.79
2022-08-31T19:34:33.163Z,20.23
2022-08-31T19:37:15.751Z,19.61
2022-08-31T19:39:56.977Z,19.15
2022-08-31T19:42:59.737Z,18.80
2022-08-31T19:45:42.738Z,18.51
2022-08-31T19:48:24.017Z,18.25
2022-08-31T19:50:59.771Z,18.30
2022-08-31T19:53:33.090Z,19.05
2022-08-31T19:56:13.693Z,19.67
2022-08-31T19:58:55.762Z,20.04
2022-08-31T20:01:34.428Z,20.30
2022-08-31T20:04:08.142Z,20.40
2022-08-31T20:06:39.155Z,19.90
2022-08-31T20:09:13.205Z,19.31
2022-08-31T20:11:50.991Z,18.86
2022-08-31T20:14:45.696Z,18.50
2022-08-31T20:17:16.732Z,18.18
2022-08-31T20:19:50.498Z,18.23
2022-08-31T20:22:28.138Z,19.37
2022-08-31T20:25:05.008Z,20.32
2022-08-31T20:27:38.018Z,20.43
2022-08-31T20:30:08.059Z,19.82
2022-08-31T20:32:39.136Z,19.17
2022-08-31T20:35:16.328Z,18.67
2022-08-31T20:37:51.143Z,18.28
2022-08-31T20:40:21.867Z,18.21
2022-08-31T20:43:00.081Z,19.04
2022-08-31T20:45:35.724Z,19.61
2022-08-31T20:48:26.222Z,19.91
2022-08-31T20:50:55.766Z,20.07
2022-08-31T20:53:42.172Z,20.23
2022-08-31T20:56:17.440Z,20.61
2022-08-31T20:58:48.511Z,20.03
2022-08-31T21:01:16.679Z,19.31
2022-08-31T21:03:44.101Z,18.76
2022-08-31T21:06:15.581Z,18.57
2022-08-31T21:08:43.446Z,19.44
2022-08-31T21:11:16.184Z,20.43
2022-08-31T21:13:46.974Z,20.68
2022-08-31T21:16:22.525Z,20.02
2022-08-31T21:18:52.445Z,19.23
2022-08-31T21:21:20.110Z,18.66
2022-08-31T21:23:48.502Z,18.23
2022-08-31T21:26:19.637Z,18.17
2022-08-31T21:28:52.145Z,18.95
2022-08-31T21:31:29.395Z,19.43
2022-08-31T21:34:01.486Z,19.68
2022-08-31T21:36:33.031Z,19.84
2022-08-31T21:39:06.422Z,20.00
2022-08-31T21:41:36.577Z,19.42
2022-08-31T21:44:06.463Z,18.74
2022-08-31T21:46:38.463Z,18.21
2022-08-31T21:49:10.298Z,18.08
2022-08-31T21:51:46.161Z,19.07
2022-08-31T21:54:16.225Z,20.00
2022-08-31T21:56:46.500Z,20.24
2022-08-31T21:59:16.229Z,19.57
2022-08-31T22:01:44.751Z,18.83
2022-08-31T22:04:15.441Z,18.26
2022-08-31T22:06:42.803Z,18.09
2022-08-31T22:09:15.908Z,18.94
2022-08-31T22:11:46.183Z,19.60
2022-08-31T22:14:16.545Z,19.98
2022-08-31T22:16:51.676Z,20.09
2022-08-31T22:19:22.544Z,19.42
2022-08-31T22:21:56.732Z,18.64
2022-08-31T22:24:29.189Z,18.24
2022-08-31T22:27:00.890Z,18.82
2022-08-31T22:29:31.838Z,19.43
2022-08-31T22:32:02.897Z,19.72
2022-08-31T22:34:30.323Z,20.11
2022-08-31T22:36:58.022Z,20.37
2022-08-31T22:39:28.148Z,19.70
2022-08-31T22:41:56.695Z,18.84
2022-08-31T22:44:26.510Z,18.18
2022-08-31T22:46:56.535Z,17.66
2022-08-31T22:49:25.640Z,17.48
2022-08-31T22:51:53.913Z,18.30
2022-08-31T22:54:21.883Z,19.25
2022-08-31T22:56:49.647Z,19.75
2022-08-31T22:59:25.499Z,20.01
2022-08-31T23:01:55.126Z,19.94
2022-08-31T23:04:25.764Z,19.18
2022-08-31T23:06:55.669Z,18.44
2022-08-31T23:09:30.008Z,17.87
2022-08-31T23:12:02.983Z,17.66
2022-08-31T23:14:31.877Z,18.20
2022-08-31T23:17:01.590Z,18.75
2022-08-31T23:19:37.754Z,19.41
2022-08-31T23:22:08.696Z,19.82
2022-08-31T23:24:48.094Z,19.17
2022-08-31T23:27:20.972Z,18.40
2022-08-31T23:29:51.042Z,17.84
2022-08-31T23:32:22.910Z,17.42
2022-08-31T23:34:52.105Z,17.26
2022-08-31T23:37:23.553Z,17.72
2022-08-31T23:39:54.194Z,18.44
2022-08-31T23:42:22.974Z,19.10
2022-08-31T23:44:50.035Z,19.38
2022-08-31T23:47:25.280Z,19.37
2022-08-31T23:49:53.160Z,19.30
2022-08-31T23:52:25.006Z,19.43
2022-08-31T23:54:57.287Z,19.42
2022-08-31T23:57:32.909Z,18.73
